Time;durP1;ratioP1;P1;durP2;ratioP2;P2;SDS_P1;SDS_P2;PMS_P1;PMS_P2;Temp;Humidity;BMP_temperature;BMP_pressure;BME280_temperature;BME280_humidity;BME280_pressure;Samples;Min_cycle;Max_cycle;Signal;HPM_P1;HPM_P2
2022/06/22 00:01:21;;;;;;;0.00;0.00;;;16.80;1.00;;;;;;5057347;28;20220;-68
2022/06/22 00:03:52;;;;;;;0.00;0.00;;;16.80;1.00;;;;;;5059517;28;20214;-68
2022/06/22 00:06:29;;;;;;;0.00;0.00;;;16.70;99.90;;;;;;5051810;28;20206;-68
2022/06/22 00:08:57;;;;;;;0.00;0.00;;;16.70;99.90;;;;;;5051578;28;20210;-68
2022/06/22 00:11:26;;;;;;;0.00;0.00;;;16.70;1.00;;;;;;5052997;28;20198;-67
2022/06/22 00:13:59;;;;;;;0.00;0.00;;;16.70;99.90;;;;;;5058987;28;20208;-67
2022/06/22 00:16:30;;;;;;;0.00;0.00;;;16.70;99.90;;;;;;5056127;28;20194;-68
2022/06/22 00:19:00;;;;;;;0.00;0.00;;;16.70;99.90;;;;;;5058849;28;20195;-68
2022/06/22 00:21:31;;;;;;;0.00;0.00;;;16.70;99.90;;;;;;5058496;28;20202;-69
2022/06/22 00:24:01;;;;;;;0.00;0.00;;;16.70;99.90;;;;;;5059447;28;20267;-69
2022/06/22 00:26:33;;;;;;;0.00;0.00;;;16.80;99.90;;;;;;5055090;28;20669;-69
2022/06/22 00:29:17;;;;;;;0.00;0.00;;;16.80;99.90;;;;;;5054912;28;20222;-69
2022/06/22 00:31:59;;;;;;;0.00;0.00;;;16.70;99.90;;;;;;5055335;28;20198;-69
2022/06/22 00:34:29;;;;;;;0.00;0.00;;;16.70;99.90;;;;;;5055581;28;20190;-69
2022/06/22 00:37:00;;;;;;;0.00;0.00;;;16.70;99.90;;;;;;5044122;28;20214;-69
2022/06/22 00:39:37;;;;;;;0.00;0.00;;;16.80;99.90;;;;;;5052868;28;20657;-69
2022/06/22 00:42:21;;;;;;;0.00;0.00;;;16.70;99.90;;;;;;5054681;28;20689;-68
2022/06/22 00:44:56;;;;;;;0.00;0.00;;;16.70;99.90;;;;;;5050376;28;20202;-68
2022/06/22 00:47:29;;;;;;;0.00;0.00;;;16.70;99.90;;;;;;5050856;28;20224;-68
2022/06/22 00:50:01;;;;;;;0.10;0.10;;;16.70;99.90;;;;;;5051152;28;20225;-69
2022/06/22 00:52:37;;;;;;;0.00;0.00;;;16.80;99.90;;;;;;5051751;28;20206;-69
2022/06/22 00:55:16;;;;;;;0.00;0.00;;;16.80;99.90;;;;;;5051522;28;20247;-69
2022/06/22 00:57:49;;;;;;;0.00;0.00;;;16.70;1.00;;;;;;5051336;28;20244;-69
2022/06/22 01:00:22;;;;;;;0.00;0.00;;;16.70;1.00;;;;;;5085431;22;20240;-68
2022/06/22 01:02:55;;;;;;;0.00;0.00;;;16.70;1.00;;;;;;5063937;28;20210;-68
2022/06/22 01:05:28;;;;;;;0.00;0.00;;;16.70;1.00;;;;;;5060757;28;20259;-68
2022/06/22 01:08:06;;;;;;;0.00;0.00;;;16.70;1.00;;;;;;5070589;28;20225;-68
2022/06/22 01:10:40;;;;;;;0.00;0.00;;;16.60;1.00;;;;;;5070826;28;20213;-68
2022/06/22 01:13:14;;;;;;;0.00;0.00;;;16.60;1.00;;;;;;5071413;28;20194;-68
2022/06/22 01:15:47;;;;;;;0.00;0.00;;;16.60;1.00;;;;;;5076728;28;20201;-68
2022/06/22 01:18:23;;;;;;;0.00;0.00;;;16.70;1.00;;;;;;5081221;28;20216;-67
2022/06/22 01:21:02;;;;;;;0.00;0.00;;;16.60;99.90;;;;;;5081641;28;20217;-67
2022/06/22 01:24:06;;;;;;;0.00;0.00;;;16.70;99.90;;;;;;5077233;28;20561;-67
2022/06/22 01:26:53;;;;;;;0.00;0.00;;;16.70;42.20;;;;;;5068927;28;20676;-67
2022/06/22 01:29:24;;;;;;;0.00;0.00;;;16.70;14.60;;;;;;5072933;28;20218;-66
2022/06/22 01:32:03;;;;;;;0.00;0.00;;;16.60;99.90;;;;;;5073152;28;20209;-68
2022/06/22 01:34:35;;;;;;;0.00;0.00;;;16.50;99.90;;;;;;5073966;28;20194;-68
2022/06/22 01:37:06;;;;;;;0.00;0.00;;;16.60;1.00;;;;;;5066817;28;20669;-68
2022/06/22 01:39:34;;;;;;;0.00;0.00;;;16.80;1.00;;;;;;5054259;28;20218;-69
2022/06/22 01:42:09;;;;;;;0.00;0.00;;;16.90;1.00;;;;;;5073272;28;20562;-66
2022/06/22 01:44:46;;;;;;;0.00;0.00;;;16.90;1.00;;;;;;5074305;28;20197;-68
2022/06/22 01:47:24;;;;;;;0.00;0.00;;;16.90;1.00;;;;;;5074152;28;20247;-69
2022/06/22 01:50:00;;;;;;;0.00;0.00;;;16.50;1.00;;;;;;5074150;28;20225;-67
2022/06/22 01:52:41;;;;;;;0.00;0.00;;;16.30;31.50;;;;;;5073511;28;20197;-68
2022/06/22 01:55:17;;;;;;;0.00;0.00;;;16.20;99.90;;;;;;5072536;28;20190;-68
2022/06/22 01:57:51;;;;;;;0.00;0.00;;;16.00;99.90;;;;;;5073799;28;20554;-66
2022/06/22 02:00:21;;;;;;;0.00;0.00;;;15.90;1.00;;;;;;5074169;28;20278;-68
2022/06/22 02:02:53;;;;;;;0.00;0.00;;;15.90;1.00;;;;;;5069959;28;20213;-69
2022/06/22 02:05:26;;;;;;;0.00;0.00;;;15.90;1.00;;;;;;5072796;28;20194;-69
2022/06/22 02:08:00;;;;;;;0.00;0.00;;;15.80;1.00;;;;;;5073365;28;20247;-68
2022/06/22 02:10:38;;;;;;;0.00;0.00;;;15.90;1.00;;;;;;5068069;28;20226;-69
2022/06/22 02:13:17;;;;;;;0.00;0.00;;;15.90;1.00;;;;;;5070500;28;20617;-67
2022/06/22 02:16:00;;;;;;;0.00;0.00;;;15.90;1.00;;;;;;5073905;28;20209;-67
2022/06/22 02:18:37;;;;;;;0.00;0.00;;;15.80;1.00;;;;;;5073713;28;20213;-67
2022/06/22 02:21:18;;;;;;;0.00;0.00;;;16.00;1.00;;;;;;5073625;28;20261;-67
2022/06/22 02:23:55;;;;;;;0.00;0.00;;;16.00;1.00;;;;;;5053427;28;20580;-66
2022/06/22 02:26:28;;;;;;;0.00;0.00;;;15.80;1.00;;;;;;5065146;28;20232;-67
2022/06/22 02:28:56;;;;;;;0.00;0.00;;;15.60;86.90;;;;;;5059416;28;20692;-69
2022/06/22 02:31:26;;;;;;;0.00;0.00;;;15.50;99.90;;;;;;5067847;28;20225;-65
2022/06/22 02:33:56;;;;;;;0.00;0.00;;;15.40;99.90;;;;;;5064751;28;20247;-66
2022/06/22 02:36:27;;;;;;;0.08;0.08;;;15.10;1.00;;;;;;5074301;28;20652;-66
2022/06/22 02:38:57;;;;;;;0.00;0.00;;;14.90;1.00;;;;;;5073591;28;20190;-66
2022/06/22 02:44:33;;;;;;;0.03;0.03;;;14.80;1.00;;;;;;5071002;28;20198;-66
2022/06/22 02:47:15;;;;;;;0.00;0.00;;;14.80;1.00;;;;;;5071639;28;20205;-66
2022/06/22 02:49:48;;;;;;;0.00;0.00;;;14.80;1.00;;;;;;5073078;28;20282;-65
2022/06/22 02:52:17;;;;;;;0.00;0.00;;;14.80;1.00;;;;;;5073283;28;20717;-65
2022/06/22 02:54:49;;;;;;;0.00;0.00;;;14.90;1.00;;;;;;5059452;28;20202;-65
2022/06/22 02:57:32;;;;;;;0.00;0.00;;;15.10;1.00;;;;;;5072921;28;20671;-65
2022/06/22 03:00:00;;;;;;;0.00;0.00;;;15.10;1.00;;;;;;5072011;28;20251;-66
2022/06/22 03:02:29;;;;;;;0.00;0.00;;;15.20;1.00;;;;;;5072368;28;20198;-66
2022/06/22 03:05:00;;;;;;;0.00;0.00;;;15.20;1.00;;;;;;5072727;28;20298;-66
2022/06/22 03:07:29;;;;;;;0.00;0.00;;;15.30;99.90;;;;;;5071658;28;20198;-66
2022/06/22 03:09:58;;;;;;;0.00;0.00;;;15.30;99.90;;;;;;5071895;28;20226;-65
2022/06/22 03:12:26;;;;;;;0.10;0.10;;;15.30;99.90;;;;;;5068104;28;20202;-66
2022/06/22 03:14:58;;;;;;;0.00;0.00;;;15.50;99.90;;;;;;5070243;28;20610;-67
2022/06/22 03:17:32;;;;;;;0.00;0.00;;;15.60;99.90;;;;;;5071677;28;20616;-67
2022/06/22 03:20:03;;;;;;;0.00;0.00;;;15.60;99.90;;;;;;5072161;28;20271;-67
2022/06/22 03:22:34;;;;;;;0.00;0.00;;;15.60;99.90;;;;;;5068820;28;20194;-67
2022/06/22 03:25:07;;;;;;;0.00;0.00;;;15.70;99.90;;;;;;5077713;28;20557;-67
2022/06/22 03:27:40;;;;;;;0.00;0.00;;;15.60;99.90;;;;;;5073505;28;20274;-67
2022/06/22 03:30:14;;;;;;;0.00;0.00;;;15.70;99.90;;;;;;5071978;28;20213;-67
2022/06/22 03:32:49;;;;;;;0.00;0.00;;;15.60;99.90;;;;;;5077735;28;20259;-67
2022/06/22 03:35:23;;;;;;;0.00;0.00;;;15.50;99.90;;;;;;5070030;28;20193;-67
2022/06/22 03:37:56;;;;;;;0.08;0.08;;;15.40;99.90;;;;;;5070540;28;20618;-67
2022/06/22 03:40:31;;;;;;;0.00;0.00;;;15.30;99.90;;;;;;5070622;28;20589;-66
2022/06/22 03:43:09;;;;;;;0.00;0.00;;;15.20;99.90;;;;;;5071546;28;20205;-66
2022/06/22 03:45:42;;;;;;;0.00;0.00;;;15.10;99.90;;;;;;5071492;28;20255;-66
2022/06/22 03:48:21;;;;;;;0.00;0.00;;;14.80;1.00;;;;;;5060091;28;20622;-66
2022/06/22 03:50:54;;;;;;;0.03;0.03;;;14.70;1.00;;;;;;5070861;28;20660;-66
2022/06/22 03:53:27;;;;;;;0.10;0.10;;;14.60;1.00;;;;;;5070982;28;20610;-66
2022/06/22 03:56:00;;;;;;;0.10;0.10;;;14.60;1.00;;;;;;5071731;28;20255;-66
2022/06/22 03:58:28;;;;;;;0.00;0.00;;;14.60;1.00;;;;;;5071285;28;20193;-66
2022/06/22 04:00:56;;;;;;;0.00;0.00;;;14.70;1.00;;;;;;5067848;28;20221;-68
2022/06/22 04:03:26;;;;;;;0.00;0.00;;;14.80;1.00;;;;;;5068815;28;20218;-67
2022/06/22 04:05:57;;;;;;;0.00;0.00;;;14.90;1.00;;;;;;5067104;28;20597;-67
2022/06/22 04:08:30;;;;;;;0.00;0.00;;;15.00;1.00;;;;;;5070950;28;20193;-66
2022/06/22 04:11:01;;;;;;;0.10;0.10;;;15.10;1.00;;;;;;5071034;28;20221;-66
2022/06/22 04:13:35;;;;;;;0.00;0.00;;;15.20;1.00;;;;;;5072129;28;20202;-66
2022/06/22 04:16:08;;;;;;;0.10;0.10;;;15.40;1.00;;;;;;5071460;28;20198;-66
2022/06/22 04:18:43;;;;;;;0.10;0.10;;;15.50;99.90;;;;;;5071031;28;20750;-66
2022/06/22 04:21:14;;;;;;;0.00;0.00;;;15.60;99.90;;;;;;5071930;28;20235;-66
2022/06/22 04:23:47;;;;;;;0.00;0.00;;;15.60;99.90;;;;;;5071898;28;20198;-66
2022/06/22 04:26:19;;;;;;;0.00;0.00;;;15.50;99.90;;;;;;5070418;28;20259;-66
2022/06/22 04:28:50;;;;;;;0.00;0.00;;;15.50;99.90;;;;;;5071511;28;20201;-67
2022/06/22 04:31:23;;;;;;;0.00;0.00;;;15.60;99.90;;;;;;5070957;28;20683;-66
2022/06/22 04:33:58;;;;;;;0.00;0.00;;;15.70;99.90;;;;;;5069366;28;20280;-66
2022/06/22 04:36:31;;;;;;;0.00;0.00;;;16.00;9.30;;;;;;5071140;28;20193;-65
2022/06/22 04:39:02;;;;;;;0.00;0.00;;;16.10;1.00;;;;;;5071035;28;20681;-66
2022/06/22 04:41:33;;;;;;;0.00;0.00;;;16.20;1.00;;;;;;5071175;28;20197;-66
2022/06/22 04:44:04;;;;;;;0.00;0.00;;;16.10;1.00;;;;;;5071046;28;20671;-66
2022/06/22 04:46:34;;;;;;;0.00;0.00;;;16.00;1.00;;;;;;5071555;28;20204;-66
2022/06/22 04:49:08;;;;;;;0.00;0.00;;;16.10;1.00;;;;;;5073195;28;20588;-66
2022/06/22 04:51:39;;;;;;;0.00;0.00;;;16.00;1.00;;;;;;5069732;28;20565;-65
2022/06/22 04:54:19;;;;;;;0.00;0.00;;;15.90;1.00;;;;;;5073417;28;20277;-66
2022/06/22 04:56:51;;;;;;;0.00;0.00;;;16.00;1.00;;;;;;5065220;28;20202;-66
2022/06/22 04:59:19;;;;;;;0.00;0.00;;;16.10;1.00;;;;;;5074480;28;20209;-66
2022/06/22 05:01:51;;;;;;;0.00;0.00;;;16.30;1.00;;;;;;5075247;28;20201;-65
2022/06/22 05:04:24;;;;;;;0.10;0.10;;;16.40;1.00;;;;;;5075040;28;20197;-65
2022/06/22 05:07:00;;;;;;;0.00;0.00;;;16.50;1.00;;;;;;5074791;28;20659;-68
2022/06/22 05:09:34;;;;;;;0.00;0.00;;;16.60;99.90;;;;;;5073743;28;20767;-66
2022/06/22 05:12:03;;;;;;;0.00;0.00;;;16.70;1.00;;;;;;5066660;28;20206;-66
2022/06/22 05:14:33;;;;;;;0.00;0.00;;;16.60;1.00;;;;;;5072100;28;20194;-67
2022/06/22 05:17:03;;;;;;;0.00;0.00;;;16.60;1.00;;;;;;5074790;28;20224;-67
2022/06/22 05:19:43;;;;;;;0.00;0.00;;;16.60;1.00;;;;;;5067473;28;20263;-67
2022/06/22 05:22:13;;;;;;;0.10;0.10;;;16.70;1.00;;;;;;5075680;28;20676;-67
2022/06/22 05:24:45;;;;;;;0.00;0.00;;;16.60;99.90;;;;;;5076164;28;20873;-67
2022/06/22 05:27:19;;;;;;;0.00;0.00;;;16.50;99.90;;;;;;5075556;28;20194;-67
2022/06/22 05:29:50;;;;;;;0.00;0.00;;;16.60;1.00;;;;;;5074651;28;20782;-67
2022/06/22 05:32:25;;;;;;;0.00;0.00;;;16.60;68.10;;;;;;5074659;28;20315;-67
2022/06/22 05:34:56;;;;;;;0.00;0.00;;;16.80;1.00;;;;;;5073974;28;20430;-67
2022/06/22 05:37:28;;;;;;;0.00;0.00;;;16.80;1.00;;;;;;5074098;28;20603;-68
2022/06/22 05:39:57;;;;;;;0.00;0.00;;;16.80;1.00;;;;;;5073325;28;20224;-67
2022/06/22 05:42:25;;;;;;;0.00;0.00;;;16.80;1.00;;;;;;5074397;28;20251;-68
2022/06/22 05:44:54;;;;;;;0.00;0.00;;;16.90;1.00;;;;;;5075212;28;20255;-68
2022/06/22 05:47:27;;;;;;;0.00;0.00;;;17.00;1.00;;;;;;5074798;28;20205;-68
2022/06/22 05:50:11;;;;;;;0.00;0.00;;;17.20;1.00;;;;;;5074666;28;20575;-68
2022/06/22 05:52:44;;;;;;;0.00;0.00;;;17.30;99.90;;;;;;5075176;28;20280;-68
2022/06/22 05:55:17;;;;;;;0.00;0.00;;;17.50;99.90;;;;;;5075146;28;20255;-68
2022/06/22 05:57:53;;;;;;;0.00;0.00;;;17.50;99.90;;;;;;5070748;28;20205;-68
2022/06/22 06:00:25;;;;;;;0.00;0.00;;;17.60;99.90;;;;;;5062867;28;20234;-68
2022/06/22 06:03:01;;;;;;;0.00;0.00;;;17.70;1.00;;;;;;5054908;28;20202;-68
2022/06/22 06:05:36;;;;;;;0.00;0.00;;;17.80;1.00;;;;;;5054359;28;20193;-68
2022/06/22 06:08:10;;;;;;;0.00;0.00;;;17.80;1.00;;;;;;5054153;28;20197;-68
2022/06/22 06:10:43;;;;;;;0.00;0.00;;;17.90;1.00;;;;;;5054367;28;20458;-69
2022/06/22 06:13:20;;;;;;;0.00;0.00;;;18.00;1.00;;;;;;5054754;28;20670;-68
2022/06/22 06:15:51;;;;;;;0.00;0.00;;;18.20;1.00;;;;;;5053295;28;20198;-68
2022/06/22 06:18:23;;;;;;;0.00;0.00;;;18.30;99.90;;;;;;5061961;28;20637;-68
2022/06/22 06:21:01;;;;;;;0.00;0.00;;;18.40;1.00;;;;;;5053655;28;20292;-68
2022/06/22 06:23:36;;;;;;;0.00;0.00;;;18.60;1.00;;;;;;5053780;28;20727;-68
2022/06/22 06:29:00;;;;;;;0.00;0.00;;;18.80;1.00;;;;;;5053776;28;20352;-68
2022/06/22 06:31:33;;;;;;;0.00;0.00;;;18.90;1.00;;;;;;5053223;28;20754;-68
2022/06/22 06:34:05;;;;;;;0.00;0.00;;;19.00;99.90;;;;;;5053818;28;20568;-68
2022/06/22 06:36:40;;;;;;;0.00;0.00;;;19.10;27.00;;;;;;5053667;28;20684;-68
2022/06/22 06:39:14;;;;;;;0.00;0.00;;;19.20;37.90;;;;;;5053767;28;20668;-68
2022/06/22 06:41:46;;;;;;;0.00;0.00;;;19.40;99.90;;;;;;5053669;28;20607;-68
2022/06/22 06:44:18;;;;;;;0.00;0.00;;;19.50;99.90;;;;;;5053627;28;20202;-69
2022/06/22 06:46:49;;;;;;;0.00;0.00;;;19.70;99.90;;;;;;5054395;28;20198;-67
2022/06/22 06:49:40;;;;;;;0.00;0.00;;;19.80;99.90;;;;;;5053862;28;20693;-67
2022/06/22 06:52:20;;;;;;;0.00;0.00;;;20.00;99.90;;;;;;5053581;28;20218;-67
2022/06/22 06:54:52;;;;;;;0.00;0.00;;;20.30;99.90;;;;;;5053685;28;20198;-70
2022/06/22 06:57:22;;;;;;;0.00;0.00;;;20.40;99.90;;;;;;5059299;28;20197;-67
2022/06/22 06:59:54;;;;;;;0.00;0.00;;;20.60;99.90;;;;;;5076705;28;20703;-67
2022/06/22 07:02:28;;;;;;;0.00;0.00;;;20.70;99.90;;;;;;5066107;28;20198;-70
2022/06/22 07:04:58;;;;;;;0.00;0.00;;;20.80;99.90;;;;;;5063634;28;20223;-67
2022/06/22 07:07:35;;;;;;;0.00;0.00;;;21.00;99.90;;;;;;5064385;28;20202;-70
2022/06/22 07:10:07;;;;;;;0.00;0.00;;;21.10;99.90;;;;;;5068036;28;20229;-67
2022/06/22 07:12:40;;;;;;;0.00;0.00;;;21.20;99.90;;;;;;5071569;28;20235;-67
2022/06/22 07:15:16;;;;;;;0.00;0.00;;;21.40;99.90;;;;;;5073005;28;20198;-69
2022/06/22 07:17:45;;;;;;;0.00;0.00;;;21.60;99.90;;;;;;5072498;28;20197;-69
2022/06/22 07:20:19;;;;;;;0.00;0.00;;;21.70;99.90;;;;;;5072914;28;20220;-68
2022/06/22 07:22:52;;;;;;;0.00;0.00;;;21.90;99.90;;;;;;5072778;28;20194;-68
2022/06/22 07:25:30;;;;;;;0.00;0.00;;;22.00;99.90;;;;;;5072997;28;20189;-67
2022/06/22 07:28:04;;;;;;;0.00;0.00;;;22.10;99.90;;;;;;5072166;28;20197;-67
2022/06/22 07:30:36;;;;;;;0.00;0.00;;;22.20;99.80;;;;;;5072484;28;20626;-67
2022/06/22 07:33:11;;;;;;;0.00;0.00;;;22.40;99.60;;;;;;5072493;28;20202;-67
2022/06/22 07:35:44;;;;;;;0.00;0.00;;;22.60;99.10;;;;;;5072187;28;20227;-68
2022/06/22 07:38:24;;;;;;;0.00;0.00;;;22.70;99.00;;;;;;5072532;28;20613;-67
2022/06/22 07:43:38;;;;;;;0.00;0.00;;;23.00;98.60;;;;;;5071746;28;20197;-68
2022/06/22 07:46:07;;;;;;;0.00;0.00;;;23.20;98.20;;;;;;5071771;28;20563;-68
2022/06/22 07:48:40;;;;;;;0.00;0.00;;;23.30;97.80;;;;;;5071602;28;20194;-69
2022/06/22 07:51:14;;;;;;;0.00;0.00;;;23.40;97.50;;;;;;5071858;28;20680;-67
2022/06/22 07:53:53;;;;;;;0.00;0.00;;;23.50;97.00;;;;;;5071803;28;20202;-68
2022/06/22 07:56:29;;;;;;;0.00;0.00;;;23.70;97.10;;;;;;5071879;28;20574;-68
2022/06/22 07:59:03;;;;;;;0.00;0.00;;;23.80;96.80;;;;;;5071961;28;20189;-67
2022/06/22 08:01:36;;;;;;;0.00;0.00;;;23.90;95.90;;;;;;5072033;28;20202;-68
2022/06/22 08:04:09;;;;;;;0.00;0.00;;;24.00;95.70;;;;;;5072177;28;20229;-68
2022/06/22 08:06:42;;;;;;;0.00;0.00;;;24.10;95.40;;;;;;5073044;28;20209;-67
2022/06/22 08:09:16;;;;;;;0.00;0.00;;;24.10;95.20;;;;;;5072160;28;20424;-67
2022/06/22 08:11:50;;;;;;;0.00;0.00;;;24.30;95.30;;;;;;5077496;28;20221;-67
2022/06/22 08:14:24;;;;;;;0.00;0.00;;;24.10;94.50;;;;;;5074647;28;20201;-68
2022/06/22 08:16:57;;;;;;;0.00;0.00;;;24.00;94.70;;;;;;5075172;28;20671;-67
2022/06/22 08:19:28;;;;;;;0.00;0.00;;;24.10;94.40;;;;;;5071611;28;20225;-67
2022/06/22 08:22:01;;;;;;;0.00;0.00;;;24.10;94.80;;;;;;5071989;28;20198;-67
2022/06/22 08:24:33;;;;;;;0.00;0.00;;;24.20;94.60;;;;;;5072376;28;20198;-67
2022/06/22 08:27:06;;;;;;;0.00;0.00;;;24.30;94.40;;;;;;5071808;28;20193;-68
2022/06/22 08:29:35;;;;;;;0.00;0.00;;;24.30;93.80;;;;;;5071465;28;20288;-68
2022/06/22 08:32:11;;;;;;;0.00;0.00;;;24.30;93.80;;;;;;5071516;28;20240;-68
2022/06/22 08:34:53;;;;;;;0.00;0.00;;;24.50;94.00;;;;;;5071897;28;20247;-68
2022/06/22 08:37:28;;;;;;;0.00;0.00;;;24.60;93.90;;;;;;5071463;28;20209;-68
2022/06/22 08:40:01;;;;;;;0.00;0.00;;;24.70;93.80;;;;;;5071291;28;20213;-67
2022/06/22 08:42:45;;;;;;;0.00;0.00;;;24.90;93.30;;;;;;5071407;28;20200;-68
2022/06/22 08:45:34;;;;;;;0.00;0.00;;;25.00;93.20;;;;;;5071586;28;20208;-68
2022/06/22 08:48:31;;;;;;;0.00;0.00;;;25.10;93.10;;;;;;5071696;28;20582;-67
2022/06/22 08:51:32;;;;;;;0.00;0.00;;;25.40;92.90;;;;;;5072099;28;20213;-67
2022/06/22 08:54:22;;;;;;;0.00;0.00;;;25.80;92.60;;;;;;5072044;28;20202;-66
2022/06/22 08:56:59;;;;;;;0.00;0.00;;;26.10;92.30;;;;;;5071599;28;20197;-66
2022/06/22 08:59:46;;;;;;;0.00;0.00;;;26.30;91.40;;;;;;5071043;28;20236;-67
2022/06/22 09:02:47;;;;;;;0.00;0.00;;;26.40;91.40;;;;;;5071406;28;20193;-67
2022/06/22 09:05:49;;;;;;;0.00;0.00;;;26.20;91.10;;;;;;5014833;28;20223;-67
2022/06/22 09:08:29;;;;;;;0.00;0.00;;;26.50;91.10;;;;;;5055768;28;20220;-67
2022/06/22 09:11:15;;;;;;;0.00;0.00;;;26.70;90.10;;;;;;5070968;28;20275;-67
2022/06/22 09:14:26;;;;;;;0.00;0.00;;;26.70;90.20;;;;;;5070936;28;20225;-67
2022/06/22 09:17:12;;;;;;;0.00;0.00;;;26.80;89.90;;;;;;5068673;28;20247;-68
2022/06/22 09:19:56;;;;;;;0.00;0.00;;;26.90;89.50;;;;;;5050506;28;20225;-69
2022/06/22 09:22:40;;;;;;;0.00;0.00;;;26.90;89.20;;;;;;5051071;28;20236;-68
2022/06/22 09:25:16;;;;;;;0.00;0.00;;;26.70;88.60;;;;;;5051161;28;20198;-67
2022/06/22 09:27:49;;;;;;;0.00;0.00;;;26.90;89.60;;;;;;5052278;28;20194;-68
2022/06/22 09:30:31;;;;;;;0.00;0.00;;;26.90;88.80;;;;;;5053113;28;20245;-67
2022/06/22 09:33:17;;;;;;;0.00;0.00;;;26.50;88.70;;;;;;5051614;28;20229;-68
2022/06/22 09:36:13;;;;;;;0.00;0.00;;;26.70;89.20;;;;;;5054889;28;20628;-71
2022/06/22 09:38:56;;;;;;;0.00;0.00;;;27.00;89.30;;;;;;5054164;28;20209;-68
2022/06/22 09:41:34;;;;;;;0.00;0.00;;;27.40;88.50;;;;;;5054279;28;20236;-67
2022/06/22 09:44:14;;;;;;;0.00;0.00;;;27.90;87.20;;;;;;5054726;28;20229;-68
2022/06/22 09:47:09;;;;;;;0.00;0.00;;;28.20;86.80;;;;;;5054205;28;20195;-68
2022/06/22 09:49:56;;;;;;;0.00;0.00;;;28.50;85.70;;;;;;5054184;28;20222;-68
2022/06/22 09:52:58;;;;;;;0.00;0.00;;;28.70;86.20;;;;;;5054193;28;20210;-68
2022/06/22 09:58:54;;;;;;;0.00;0.00;;;29.00;84.30;;;;;;5043067;28;20259;-68
2022/06/22 10:01:30;;;;;;;0.00;0.00;;;29.20;84.20;;;;;;5054251;28;20754;-69
2022/06/22 10:04:24;;;;;;;0.00;0.00;;;29.40;83.30;;;;;;5054520;28;20194;-68
2022/06/22 10:07:12;;;;;;;0.00;0.00;;;29.50;82.60;;;;;;5053960;28;20210;-68
2022/06/22 10:09:54;;;;;;;0.00;0.00;;;29.50;82.00;;;;;;5053546;28;20222;-68
2022/06/22 10:12:59;;;;;;;0.00;0.00;;;29.60;80.70;;;;;;5053954;28;20220;-69
2022/06/22 10:15:50;;;;;;;0.00;0.00;;;29.40;80.70;;;;;;5052408;28;20218;-68
2022/06/22 10:18:34;;;;;;;0.00;0.00;;;29.00;81.00;;;;;;5054651;28;20199;-68
2022/06/22 10:21:10;;;;;;;0.00;0.00;;;29.30;81.80;;;;;;5055130;28;20214;-68
2022/06/22 10:23:56;;;;;;;0.00;0.00;;;29.40;80.90;;;;;;5055273;28;20732;-68
2022/06/22 10:26:41;;;;;;;0.00;0.00;;;29.80;82.00;;;;;;5054008;28;20190;-68
2022/06/22 10:29:32;;;;;;;0.00;0.00;;;29.90;80.60;;;;;;5052971;28;20191;-67
2022/06/22 10:32:14;;;;;;;0.00;0.00;;;30.10;80.40;;;;;;5053729;28;20194;-67
2022/06/22 10:34:53;;;;;;;0.00;0.00;;;30.00;80.30;;;;;;5058250;28;20202;-67
2022/06/22 10:37:52;;;;;;;0.00;0.00;;;30.30;80.00;;;;;;5056469;28;20239;-67
2022/06/22 10:46:47;;;;;;;0.00;0.00;;;30.60;79.50;;;;;;5054944;28;20194;-66
2022/06/22 10:49:41;;;;;;;0.00;0.00;;;31.00;78.30;;;;;;5063503;28;20554;-66
2022/06/22 10:52:20;;;;;;;0.00;0.00;;;31.20;77.30;;;;;;5075990;28;20210;-66
2022/06/22 10:55:22;;;;;;;0.00;0.00;;;31.40;76.80;;;;;;5074175;28;20603;-66
2022/06/22 10:58:07;;;;;;;0.00;0.00;;;31.20;75.60;;;;;;5075275;28;20190;-66
2022/06/22 11:00:50;;;;;;;0.00;0.00;;;31.20;75.80;;;;;;5075458;28;20240;-67
2022/06/22 11:03:57;;;;;;;0.00;0.00;;;31.20;75.90;;;;;;5074404;28;20190;-69
2022/06/22 11:07:03;;;;;;;0.00;0.00;;;30.80;75.30;;;;;;5066586;28;20259;-66
2022/06/22 11:09:59;;;;;;;0.00;0.00;;;30.80;76.60;;;;;;5052345;28;20233;-66
2022/06/22 11:12:56;;;;;;;0.00;0.00;;;31.10;75.80;;;;;;5053827;28;20285;-67
2022/06/22 11:15:58;;;;;;;0.00;0.00;;;31.30;76.00;;;;;;5053569;28;20206;-67
2022/06/22 11:19:04;;;;;;;0.00;0.00;;;31.30;75.10;;;;;;5052855;28;20206;-67
2022/06/22 11:21:47;;;;;;;0.00;0.00;;;31.50;74.50;;;;;;5022208;28;20214;-68
2022/06/22 11:24:57;;;;;;;0.00;0.00;;;31.30;74.00;;;;;;5052478;28;20593;-67
2022/06/22 11:30:53;;;;;;;0.00;0.00;;;31.50;74.50;;;;;;5052614;28;20279;-67
2022/06/22 11:33:54;;;;;;;0.00;0.00;;;31.50;73.10;;;;;;5052183;28;20712;-67
2022/06/22 11:36:27;;;;;;;0.00;0.00;;;30.80;74.60;;;;;;5052196;28;20201;-68
2022/06/22 11:39:47;;;;;;;0.00;0.00;;;31.10;74.00;;;;;;5051713;28;20203;-67
2022/06/22 11:42:23;;;;;;;0.00;0.00;;;30.30;74.70;;;;;;5052281;28;20198;-67
2022/06/22 11:48:26;;;;;;;0.00;0.00;;;30.30;75.20;;;;;;5052455;28;20206;-68
2022/06/22 11:51:06;;;;;;;0.00;0.00;;;30.50;75.60;;;;;;5050294;28;20230;-67
2022/06/22 11:54:07;;;;;;;0.00;0.00;;;30.50;75.80;;;;;;5052193;28;20580;-67
2022/06/22 11:56:52;;;;;;;0.00;0.00;;;30.50;75.60;;;;;;5037411;28;20217;-68
2022/06/22 11:59:37;;;;;;;0.00;0.00;;;30.10;74.90;;;;;;5051432;28;20198;-67
2022/06/22 12:02:30;;;;;;;0.00;0.00;;;30.00;76.20;;;;;;5051998;28;20198;-67
2022/06/22 12:05:45;;;;;;;0.00;0.00;;;30.50;75.20;;;;;;5051859;28;20218;-67
2022/06/22 12:08:49;;;;;;;0.00;0.00;;;30.90;74.20;;;;;;5051693;28;20209;-67
2022/06/22 12:11:24;;;;;;;0.00;0.00;;;31.10;74.00;;;;;;5051640;28;20292;-67
2022/06/22 12:17:27;;;;;;;0.00;0.00;;;30.90;74.10;;;;;;5051639;28;20194;-68
2022/06/22 12:20:03;;;;;;;0.00;0.00;;;31.30;73.20;;;;;;5052464;28;20268;-68
2022/06/22 12:22:42;;;;;;;0.00;0.00;;;31.40;73.00;;;;;;5053778;28;20200;-67
2022/06/22 12:25:31;;;;;;;0.00;0.00;;;31.40;72.90;;;;;;5053982;28;20220;-67
2022/06/22 12:28:15;;;;;;;0.00;0.00;;;31.50;72.60;;;;;;5052113;28;20284;-67
2022/06/22 12:31:01;;;;;;;0.00;0.00;;;31.70;72.20;;;;;;5051305;28;20289;-67
2022/06/22 12:33:36;;;;;;;0.00;0.00;;;31.70;72.00;;;;;;5051394;28;20251;-67
2022/06/22 12:36:09;;;;;;;0.00;0.00;;;31.70;71.90;;;;;;5051556;28;20364;-67
2022/06/22 12:38:41;;;;;;;0.00;0.00;;;31.30;72.00;;;;;;5051706;28;20192;-67
2022/06/22 12:41:41;;;;;;;0.00;0.00;;;31.70;72.60;;;;;;5051265;28;20209;-67
2022/06/22 12:44:43;;;;;;;0.00;0.00;;;32.10;71.40;;;;;;5051505;28;20197;-67
2022/06/22 12:47:47;;;;;;;0.00;0.00;;;32.20;71.30;;;;;;5051319;28;20202;-69
2022/06/22 12:50:55;;;;;;;0.00;0.00;;;32.10;70.90;;;;;;5051677;28;20362;-68
2022/06/22 12:53:30;;;;;;;0.00;0.00;;;32.20;70.70;;;;;;5051504;28;20200;-68
2022/06/22 12:56:07;;;;;;;0.00;0.00;;;32.20;70.30;;;;;;5051866;28;20201;-67
2022/06/22 12:58:44;;;;;;;0.00;0.00;;;32.00;70.30;;;;;;5051537;28;20289;-67
2022/06/22 13:01:12;;;;;;;0.00;0.00;;;32.00;70.10;;;;;;5051769;28;20236;-68
2022/06/22 13:03:45;;;;;;;0.00;0.00;;;31.90;69.90;;;;;;5051825;28;20202;-68
2022/06/22 13:06:13;;;;;;;0.00;0.00;;;31.80;70.10;;;;;;5051452;28;20282;-68
2022/06/22 13:08:42;;;;;;;0.00;0.00;;;31.70;70.40;;;;;;5051562;28;20198;-69
2022/06/22 13:11:16;;;;;;;0.00;0.00;;;31.70;70.60;;;;;;5054962;28;20214;-68
2022/06/22 13:13:53;;;;;;;0.00;0.00;;;31.80;70.50;;;;;;5055150;28;20267;-68
2022/06/22 13:16:25;;;;;;;0.00;0.00;;;32.00;70.30;;;;;;5055080;28;20244;-68
2022/06/22 13:18:58;;;;;;;0.00;0.00;;;32.10;69.70;;;;;;5054285;28;20252;-69
2022/06/22 13:21:34;;;;;;;0.00;0.00;;;32.10;69.80;;;;;;5055065;28;20222;-68
2022/06/22 13:24:11;;;;;;;0.00;0.00;;;32.10;69.60;;;;;;5054397;28;20731;-68
2022/06/22 13:26:50;;;;;;;0.00;0.00;;;32.00;69.80;;;;;;5054688;28;20201;-68
2022/06/22 13:29:26;;;;;;;0.00;0.00;;;32.00;69.30;;;;;;5055330;28;20324;-68
2022/06/22 13:31:58;;;;;;;0.00;0.00;;;31.80;69.50;;;;;;5061006;28;20205;-69
2022/06/22 13:34:31;;;;;;;0.00;0.00;;;31.90;69.70;;;;;;5056313;28;20264;-69
2022/06/22 13:37:05;;;;;;;0.00;0.00;;;31.90;70.10;;;;;;5055963;28;20190;-68
2022/06/22 13:39:43;;;;;;;0.00;0.00;;;31.80;69.60;;;;;;5059552;28;20205;-68
2022/06/22 13:42:25;;;;;;;0.00;0.00;;;31.80;70.00;;;;;;5057592;28;20198;-69
2022/06/22 13:45:18;;;;;;;0.00;0.00;;;31.70;70.00;;;;;;5055885;28;20213;-68
2022/06/22 13:48:16;;;;;;;0.00;0.00;;;31.70;70.00;;;;;;5057226;28;20199;-68
2022/06/22 13:51:06;;;;;;;0.00;0.00;;;31.60;70.20;;;;;;5055862;28;20599;-68
2022/06/22 13:54:12;;;;;;;0.00;0.00;;;31.50;69.90;;;;;;5052822;28;20559;-68
2022/06/22 13:56:55;;;;;;;0.00;0.00;;;31.40;70.10;;;;;;5040770;28;20555;-70
2022/06/22 13:59:31;;;;;;;0.00;0.00;;;31.30;70.40;;;;;;5053908;28;20395;-69
2022/06/22 14:02:08;;;;;;;0.00;0.00;;;31.30;70.80;;;;;;5054085;28;20201;-68
2022/06/22 14:04:41;;;;;;;0.00;0.00;;;31.30;70.30;;;;;;5053715;28;20194;-68
2022/06/22 14:07:15;;;;;;;0.00;0.00;;;31.20;70.70;;;;;;5054242;28;20278;-68
2022/06/22 14:09:49;;;;;;;0.00;0.00;;;31.20;70.40;;;;;;5053925;28;20607;-68
2022/06/22 14:12:29;;;;;;;0.00;0.00;;;31.20;70.70;;;;;;5053860;28;20209;-69
2022/06/22 14:15:06;;;;;;;0.00;0.00;;;31.00;70.60;;;;;;5053765;28;20245;-68